createdAt,value
2023-03-18T00:00:11.358Z,12.40
2023-03-18T00:02:40.297Z,12.40
2023-03-18T00:05:09.262Z,12.40
2023-03-18T00:07:37.356Z,12.40
2023-03-18T00:10:10.583Z,12.30
2023-03-18T00:12:40.281Z,12.30
2023-03-18T00:15:11.467Z,12.30
2023-03-18T00:17:40.187Z,12.30
2023-03-18T00:20:09.411Z,12.30
2023-03-18T00:22:38.966Z,12.30
2023-03-18T00:25:10.025Z,12.20
2023-03-18T00:27:38.400Z,12.20
2023-03-18T00:30:07.489Z,12.20
2023-03-18T00:32:34.777Z,12.20
2023-03-18T00:35:02.244Z,12.20
2023-03-18T00:37:30.990Z,12.10
2023-03-18T00:40:06.297Z,12.10
2023-03-18T00:42:39.447Z,12.10
2023-03-18T00:45:10.973Z,12.10
2023-03-18T00:47:38.562Z,12.10
2023-03-18T00:50:08.533Z,12.10
2023-03-18T00:52:37.581Z,12.20
2023-03-18T00:55:06.845Z,12.10
2023-03-18T00:57:35.380Z,12.10
2023-03-18T01:00:11.463Z,12.00
2023-03-18T01:02:38.554Z,12.00
2023-03-18T01:05:05.950Z,12.10
2023-03-18T01:07:33.265Z,12.00
2023-03-18T01:10:01.482Z,12.00
2023-03-18T01:12:33.233Z,12.00
2023-03-18T01:15:05.702Z,12.00
2023-03-18T01:17:36.071Z,11.90
2023-03-18T01:20:07.885Z,11.90
2023-03-18T01:22:35.003Z,11.90
2023-03-18T01:25:02.547Z,11.80
2023-03-18T01:27:36.310Z,11.80
2023-03-18T01:30:07.076Z,11.80
2023-03-18T01:32:34.468Z,11.80
2023-03-18T01:35:01.908Z,11.80
2023-03-18T01:37:29.201Z,11.80
2023-03-18T01:40:13.589Z,11.80
2023-03-18T01:42:47.349Z,11.90
2023-03-18T01:45:25.742Z,11.90
2023-03-18T01:47:58.252Z,11.90
2023-03-18T01:50:38.209Z,11.90
2023-03-18T01:53:15.860Z,11.90
2023-03-18T01:55:50.027Z,12.00
2023-03-18T01:58:27.157Z,12.00
2023-03-18T02:01:06.185Z,12.00
2023-03-18T02:03:35.098Z,12.00
2023-03-18T02:06:03.169Z,12.00
2023-03-18T02:08:30.266Z,12.00
2023-03-18T02:10:57.780Z,11.90
2023-03-18T02:13:26.372Z,11.90
2023-03-18T02:16:05.123Z,11.80
2023-03-18T02:18:48.931Z,11.80
2023-03-18T02:21:51.955Z,11.80
2023-03-18T02:24:46.274Z,11.70
2023-03-18T02:27:30.003Z,11.70
2023-03-18T02:30:03.059Z,11.70
2023-03-18T02:32:35.865Z,11.60
2023-03-18T02:35:08.266Z,11.60
2023-03-18T02:37:38.137Z,11.60
2023-03-18T02:40:25.213Z,11.50
2023-03-18T02:42:52.885Z,11.50
2023-03-18T02:45:52.538Z,11.50
2023-03-18T02:48:23.652Z,11.50
2023-03-18T02:50:50.741Z,11.60
2023-03-18T02:53:18.253Z,11.50
2023-03-18T02:55:45.536Z,11.50
2023-03-18T02:58:12.675Z,11.50
2023-03-18T03:00:41.050Z,11.50
2023-03-18T03:03:08.333Z,11.50
2023-03-18T03:05:36.075Z,11.50
2023-03-18T03:08:03.931Z,11.60
2023-03-18T03:10:34.344Z,11.50
2023-03-18T03:13:02.294Z,11.60
2023-03-18T03:15:30.432Z,11.60
2023-03-18T03:17:59.730Z,11.60
2023-03-18T03:20:26.820Z,11.60
2023-03-18T03:22:54.039Z,11.60
2023-03-18T03:25:22.363Z,11.60
2023-03-18T03:27:49.815Z,11.60
2023-03-18T03:30:18.439Z,11.50
2023-03-18T03:32:49.877Z,11.50
2023-03-18T03:35:31.393Z,11.40
2023-03-18T03:37:59.509Z,11.40
2023-03-18T03:40:27.676Z,11.40
2023-03-18T03:42:55.058Z,11.30
2023-03-18T03:45:22.628Z,11.30
2023-03-18T03:47:49.813Z,11.30
2023-03-18T03:50:18.349Z,11.30
2023-03-18T03:52:46.095Z,11.40
2023-03-18T03:55:18.156Z,11.40
2023-03-18T03:57:46.929Z,11.40
2023-03-18T04:00:20.421Z,11.40
2023-03-18T04:02:51.953Z,11.40
2023-03-18T04:05:24.753Z,11.40
2023-03-18T04:07:53.395Z,11.40
2023-03-18T04:10:31.135Z,11.40
2023-03-18T04:12:59.274Z,11.50
2023-03-18T04:15:27.676Z,11.40
2023-03-18T04:17:55.518Z,11.40
2023-03-18T04:20:24.264Z,11.40
2023-03-18T04:22:51.762Z,11.40
2023-03-18T04:25:20.822Z,11.40
2023-03-18T04:27:52.612Z,11.40
2023-03-18T04:30:23.288Z,11.40
2023-03-18T04:33:03.443Z,11.40
2023-03-18T04:35:31.974Z,11.40
2023-03-18T04:37:59.582Z,11.40
2023-03-18T04:40:27.091Z,11.40
2023-03-18T04:42:54.017Z,11.40
2023-03-18T04:45:24.990Z,11.40
2023-03-18T04:47:55.379Z,11.40
2023-03-18T04:50:24.232Z,11.40
2023-03-18T04:52:51.507Z,11.40
2023-03-18T04:55:23.902Z,11.40
2023-03-18T04:57:51.389Z,11.40
2023-03-18T05:00:25.266Z,11.40
2023-03-18T05:03:03.088Z,11.40
2023-03-18T05:05:31.789Z,11.40
2023-03-18T05:08:00.095Z,11.40
2023-03-18T05:10:28.377Z,11.40
2023-03-18T05:12:58.964Z,11.40
2023-03-18T05:15:32.554Z,11.40
2023-03-18T05:18:00.481Z,11.40
2023-03-18T05:20:28.657Z,11.40
2023-03-18T05:22:55.714Z,11.40
2023-03-18T05:25:50.390Z,11.40
2023-03-18T05:28:18.936Z,11.50
2023-03-18T05:30:55.131Z,11.40
2023-03-18T05:33:23.490Z,11.40
2023-03-18T05:35:57.020Z,11.40
2023-03-18T05:38:30.129Z,11.50
2023-03-18T05:40:57.950Z,11.40
2023-03-18T05:43:33.821Z,11.50
2023-03-18T05:46:01.395Z,11.50
2023-03-18T05:48:51.706Z,11.50
2023-03-18T05:51:20.798Z,11.50
2023-03-18T05:53:50.693Z,11.50
2023-03-18T05:56:24.638Z,11.50
2023-03-18T05:58:56.361Z,11.50
2023-03-18T06:01:44.739Z,11.50
2023-03-18T06:04:12.077Z,11.50
2023-03-18T06:06:40.741Z,11.50
2023-03-18T06:09:13.427Z,11.50
2023-03-18T06:11:56.291Z,11.50
2023-03-18T06:14:30.159Z,11.50
2023-03-18T06:17:01.168Z,11.50
2023-03-18T06:19:30.646Z,11.60
2023-03-18T06:21:58.900Z,11.60
2023-03-18T06:24:26.409Z,11.60
2023-03-18T06:26:55.817Z,11.60
2023-03-18T06:29:23.209Z,11.60
2023-03-18T06:31:52.455Z,11.60
2023-03-18T06:34:24.815Z,11.60
2023-03-18T06:36:52.392Z,11.60
2023-03-18T06:39:21.693Z,11.60
2023-03-18T06:41:51.251Z,11.70
2023-03-18T06:44:50.611Z,11.70
2023-03-18T06:47:29.266Z,11.80
2023-03-18T06:50:22.183Z,11.80
2023-03-18T06:53:03.915Z,11.90
2023-03-18T06:55:35.047Z,12.00
2023-03-18T06:58:10.713Z,12.00
2023-03-18T07:01:08.460Z,12.10
2023-03-18T07:03:51.373Z,12.20
2023-03-18T07:06:27.930Z,12.20
2023-03-18T07:08:59.765Z,12.30
2023-03-18T07:11:28.630Z,12.40
2023-03-18T07:13:56.473Z,12.40
2023-03-18T07:16:30.791Z,12.50
2023-03-18T07:18:59.139Z,12.60
2023-03-18T07:21:27.711Z,12.70
2023-03-18T07:23:55.543Z,12.90
2023-03-18T07:26:25.768Z,13.00
2023-03-18T07:28:52.613Z,13.10
2023-03-18T07:31:19.527Z,13.10
2023-03-18T07:33:46.895Z,13.10
2023-03-18T07:36:14.212Z,13.20
2023-03-18T07:38:41.276Z,13.30
2023-03-18T07:41:08.494Z,13.40
2023-03-18T07:43:37.013Z,13.60
2023-03-18T07:46:04.556Z,13.80
2023-03-18T07:48:34.150Z,13.90
2023-03-18T07:51:01.982Z,14.00
2023-03-18T07:53:29.399Z,14.20
2023-03-18T07:55:56.314Z,14.40
2023-03-18T07:58:24.510Z,14.40
2023-03-18T08:00:52.961Z,14.50
2023-03-18T08:03:19.908Z,14.30
2023-03-18T08:05:46.827Z,14.30
2023-03-18T08:08:13.774Z,14.30
2023-03-18T08:10:40.616Z,14.20
2023-03-18T08:13:07.603Z,14.20
2023-03-18T08:15:35.060Z,14.20
2023-03-18T08:18:02.473Z,14.30
2023-03-18T08:20:29.455Z,14.40
2023-03-18T08:22:57.146Z,14.40
2023-03-18T08:25:24.748Z,14.40
2023-03-18T08:27:52.386Z,14.40
2023-03-18T08:30:19.951Z,14.40
2023-03-18T08:32:47.045Z,14.50
2023-03-18T08:35:14.451Z,14.50
2023-03-18T08:37:41.472Z,14.70
2023-03-18T08:40:09.794Z,14.80
2023-03-18T08:42:36.718Z,15.00
2023-03-18T08:45:04.821Z,15.10
2023-03-18T08:47:32.339Z,15.30
2023-03-18T08:49:59.333Z,15.30
2023-03-18T08:52:26.219Z,15.40
2023-03-18T08:54:53.181Z,15.50
2023-03-18T08:57:20.138Z,15.70
2023-03-18T08:59:47.064Z,15.90
2023-03-18T09:02:16.866Z,16.00
2023-03-18T09:04:44.902Z,16.10
2023-03-18T09:07:13.108Z,16.20
2023-03-18T09:09:43.958Z,16.20
2023-03-18T09:12:14.778Z,16.30
2023-03-18T09:14:43.865Z,16.40
2023-03-18T09:17:11.004Z,16.40
2023-03-18T09:19:38.391Z,16.40
2023-03-18T09:22:05.741Z,16.60
2023-03-18T09:24:32.861Z,16.80
2023-03-18T09:26:59.886Z,16.90
2023-03-18T09:29:27.641Z,17.10
2023-03-18T09:31:55.474Z,17.20
2023-03-18T09:34:22.751Z,17.40
2023-03-18T09:36:51.508Z,17.40
2023-03-18T09:39:20.606Z,17.40
2023-03-18T09:42:13.296Z,17.50
2023-03-18T09:44:40.959Z,17.60
2023-03-18T09:47:22.153Z,17.60
2023-03-18T09:50:08.316Z,17.70
2023-03-18T09:52:44.153Z,17.90
2023-03-18T09:55:40.127Z,18.10
2023-03-18T09:58:23.391Z,18.20
2023-03-18T10:00:58.319Z,18.10
2023-03-18T10:03:35.896Z,17.90
2023-03-18T10:06:16.306Z,17.80
2023-03-18T10:09:12.316Z,17.60
2023-03-18T10:11:47.361Z,17.50
2023-03-18T10:14:19.926Z,17.40
2023-03-18T10:17:14.766Z,17.70
2023-03-18T10:19:58.883Z,18.20
2023-03-18T10:22:54.229Z,18.90
2023-03-18T10:25:41.592Z,19.30
2023-03-18T10:28:50.956Z,19.90
2023-03-18T10:31:31.971Z,20.20
2023-03-18T10:34:23.458Z,20.30
2023-03-18T10:37:31.907Z,20.30
2023-03-18T10:40:00.161Z,20.40
2023-03-18T10:42:31.886Z,20.50
2023-03-18T10:45:31.037Z,20.40
2023-03-18T10:48:29.395Z,20.70
2023-03-18T10:51:21.993Z,21.20
2023-03-18T10:54:10.274Z,21.30
2023-03-18T10:56:37.830Z,21.30
2023-03-18T10:59:24.506Z,21.40
2023-03-18T11:02:30.780Z,21.20
2023-03-18T11:05:22.259Z,21.40
2023-03-18T11:08:01.337Z,21.40
2023-03-18T11:10:35.888Z,21.40
2023-03-18T11:13:03.769Z,21.60
2023-03-18T11:15:39.800Z,21.90
2023-03-18T11:18:19.600Z,22.10
2023-03-18T11:21:00.561Z,21.70
2023-03-18T11:23:56.114Z,21.20
2023-03-18T11:26:26.543Z,21.20
2023-03-18T11:29:09.407Z,21.40
2023-03-18T11:31:51.080Z,21.30
2023-03-18T11:34:19.764Z,21.40
2023-03-18T11:37:01.325Z,21.40
2023-03-18T11:39:37.494Z,21.50
2023-03-18T11:42:22.156Z,21.50
2023-03-18T11:44:56.184Z,21.40
2023-03-18T11:47:30.215Z,21.30
2023-03-18T11:49:57.505Z,21.40
2023-03-18T11:53:00.833Z,21.50
2023-03-18T11:55:52.269Z,21.80
2023-03-18T11:58:22.181Z,21.80
2023-03-18T12:01:56.795Z,22.10
2023-03-18T12:05:16.705Z,22.40
2023-03-18T12:08:29.589Z,22.30
2023-03-18T12:11:42.582Z,22.30
2023-03-18T12:14:38.797Z,22.20
2023-03-18T12:17:49.660Z,22.10
2023-03-18T12:20:49.547Z,22.00
2023-03-18T12:23:53.588Z,21.60
2023-03-18T12:26:35.158Z,20.90
2023-03-18T12:29:13.521Z,20.60
2023-03-18T12:32:34.057Z,20.40
2023-03-18T12:35:34.422Z,20.20
2023-03-18T12:38:16.929Z,19.90
2023-03-18T12:41:09.582Z,19.80
2023-03-18T12:44:14.319Z,19.90
2023-03-18T12:47:11.632Z,19.90
2023-03-18T12:49:53.374Z,20.00
2023-03-18T12:52:31.667Z,20.00
2023-03-18T12:55:07.651Z,20.30
2023-03-18T12:57:59.565Z,20.40
2023-03-18T13:00:57.164Z,20.30
2023-03-18T13:03:35.500Z,20.10
2023-03-18T13:06:15.649Z,19.90
2023-03-18T13:09:31.951Z,19.70
2023-03-18T13:12:32.148Z,19.50
2023-03-18T13:15:31.006Z,19.30
2023-03-18T13:18:12.414Z,19.10
2023-03-18T13:20:41.863Z,18.80
2023-03-18T13:23:46.343Z,18.70
2023-03-18T13:27:01.646Z,18.60
2023-03-18T13:30:10.821Z,18.50
2023-03-18T13:33:07.865Z,18.50
2023-03-18T13:36:22.409Z,18.50
2023-03-18T13:39:19.641Z,18.30
2023-03-18T13:42:41.718Z,18.30
2023-03-18T13:45:33.663Z,18.20
2023-03-18T13:48:08.766Z,18.10
2023-03-18T13:50:43.184Z,18.10
2023-03-18T13:53:27.326Z,18.00
2023-03-18T13:55:57.662Z,18.00
2023-03-18T13:58:45.358Z,17.90
2023-03-18T14:01:29.395Z,17.90
2023-03-18T14:04:20.339Z,17.80
2023-03-18T14:07:17.495Z,17.70
2023-03-18T14:10:20.328Z,17.60
2023-03-18T14:12:48.517Z,17.40
2023-03-18T14:15:15.641Z,17.10
2023-03-18T14:17:56.942Z,16.80
2023-03-18T14:20:36.809Z,16.40
2023-03-18T14:23:42.622Z,16.00
2023-03-18T14:26:27.021Z,15.70
2023-03-18T14:29:14.441Z,15.60
2023-03-18T14:31:44.158Z,15.70
2023-03-18T14:34:16.633Z,15.80
2023-03-18T14:37:24.200Z,15.90
2023-03-18T14:39:55.184Z,16.00
2023-03-18T14:42:58.779Z,16.00
2023-03-18T14:45:37.546Z,16.00
2023-03-18T14:48:31.716Z,16.10
2023-03-18T14:51:04.896Z,16.20
2023-03-18T14:53:48.977Z,16.30
2023-03-18T14:56:25.242Z,16.40
2023-03-18T14:58:55.132Z,16.60
2023-03-18T15:01:40.496Z,16.70
2023-03-18T15:04:13.971Z,16.80
2023-03-18T15:06:41.809Z,16.80
2023-03-18T15:09:18.258Z,16.80
2023-03-18T15:11:47.757Z,16.70
2023-03-18T15:14:30.375Z,16.60
2023-03-18T15:17:01.770Z,16.60
2023-03-18T15:19:30.541Z,16.50
2023-03-18T15:22:05.922Z,16.40
2023-03-18T15:24:33.830Z,16.40
2023-03-18T15:27:17.785Z,16.40
2023-03-18T15:29:51.510Z,16.70
2023-03-18T15:32:47.166Z,17.00
2023-03-18T15:35:24.299Z,17.20
2023-03-18T15:38:08.970Z,17.40
2023-03-18T15:40:54.694Z,17.30
2023-03-18T15:43:51.583Z,17.50
2023-03-18T15:46:27.266Z,17.50
2023-03-18T15:48:56.890Z,17.50
2023-03-18T15:51:26.788Z,17.40
2023-03-18T15:54:05.742Z,17.40
2023-03-18T15:56:36.002Z,17.40
2023-03-18T15:59:15.884Z,17.40
2023-03-18T16:01:43.251Z,17.50
2023-03-18T16:04:16.319Z,17.60
2023-03-18T16:06:44.463Z,17.60
2023-03-18T16:09:23.944Z,17.50
2023-03-18T16:11:54.081Z,17.40
2023-03-18T16:14:29.124Z,17.20
2023-03-18T16:16:55.947Z,17.20
2023-03-18T16:19:28.146Z,17.00
2023-03-18T16:21:58.964Z,16.80
2023-03-18T16:24:26.367Z,16.70
2023-03-18T16:26:55.134Z,16.50
2023-03-18T16:29:38.170Z,16.40
2023-03-18T16:32:06.320Z,16.40
2023-03-18T16:34:34.850Z,16.50
2023-03-18T16:37:02.179Z,16.40
2023-03-18T16:39:35.195Z,16.30
2023-03-18T16:42:05.155Z,16.20
2023-03-18T16:44:35.546Z,16.10
2023-03-18T16:47:02.488Z,16.00
2023-03-18T16:49:36.514Z,16.00
2023-03-18T16:52:03.907Z,15.90
2023-03-18T16:54:33.783Z,15.80
2023-03-18T16:57:04.592Z,15.80
2023-03-18T16:59:38.367Z,15.80
2023-03-18T17:02:25.092Z,15.80
2023-03-18T17:04:51.948Z,15.80
2023-03-18T17:07:18.850Z,15.80
2023-03-18T17:09:45.813Z,15.80
2023-03-18T17:12:14.088Z,15.80
2023-03-18T17:14:54.801Z,15.80
2023-03-18T17:17:33.049Z,15.80
2023-03-18T17:20:00.239Z,15.80
2023-03-18T17:22:30.924Z,15.80
2023-03-18T17:25:00.074Z,15.70
2023-03-18T17:27:36.098Z,15.60
2023-03-18T17:30:10.418Z,15.50
2023-03-18T17:32:37.487Z,15.50
2023-03-18T17:35:17.667Z,15.40
2023-03-18T17:37:45.919Z,15.40
2023-03-18T17:40:16.561Z,15.30
2023-03-18T17:42:46.247Z,15.20
2023-03-18T17:45:35.032Z,15.20
2023-03-18T17:48:27.513Z,15.10
2023-03-18T17:50:58.428Z,15.00
2023-03-18T17:53:27.445Z,14.90
2023-03-18T17:55:55.757Z,14.80
2023-03-18T17:58:28.273Z,14.80
2023-03-18T18:01:29.646Z,14.70
2023-03-18T18:04:09.896Z,14.60
2023-03-18T18:06:49.571Z,14.50
2023-03-18T18:09:29.025Z,14.40
2023-03-18T18:11:59.054Z,14.30
2023-03-18T18:14:33.338Z,14.30
2023-03-18T18:17:05.219Z,14.20
2023-03-18T18:19:36.344Z,14.20
2023-03-18T18:22:07.765Z,14.10
2023-03-18T18:24:36.195Z,14.10
2023-03-18T18:27:05.130Z,14.00
2023-03-18T18:29:35.018Z,13.90
2023-03-18T18:32:02.343Z,13.90
2023-03-18T18:34:29.385Z,13.80
2023-03-18T18:36:56.726Z,13.70
2023-03-18T18:39:24.134Z,13.60
2023-03-18T18:41:51.321Z,13.60
2023-03-18T18:44:19.094Z,13.50
2023-03-18T18:46:46.577Z,13.50
2023-03-18T18:49:22.303Z,13.40
2023-03-18T18:51:55.827Z,13.40
2023-03-18T18:54:24.676Z,13.30
2023-03-18T18:56:52.353Z,13.30
2023-03-18T18:59:27.477Z,13.30
2023-03-18T19:01:56.211Z,13.20
2023-03-18T19:04:24.027Z,13.20
2023-03-18T19:06:54.522Z,13.20
2023-03-18T19:09:26.430Z,13.10
2023-03-18T19:11:56.139Z,13.10
2023-03-18T19:14:28.309Z,13.00
2023-03-18T19:16:58.633Z,12.90
2023-03-18T19:19:34.314Z,12.90
2023-03-18T19:22:02.779Z,12.80
2023-03-18T19:24:36.975Z,12.80
2023-03-18T19:27:13.617Z,12.70
2023-03-18T19:29:41.419Z,12.60
2023-03-18T19:32:22.908Z,12.60
2023-03-18T19:34:52.764Z,12.60
2023-03-18T19:37:29.106Z,12.50
2023-03-18T19:39:57.707Z,12.50
2023-03-18T19:42:25.485Z,12.40
2023-03-18T19:44:52.492Z,12.40
2023-03-18T19:47:29.380Z,12.40
2023-03-18T19:49:56.392Z,12.40
2023-03-18T19:52:27.594Z,12.30
2023-03-18T19:54:55.601Z,12.30
2023-03-18T19:57:32.644Z,12.30
2023-03-18T20:00:05.046Z,12.20
2023-03-18T20:02:34.840Z,12.20
2023-03-18T20:05:16.482Z,12.20
2023-03-18T20:07:43.463Z,12.10
2023-03-18T20:10:13.682Z,12.10
2023-03-18T20:12:48.139Z,12.10
2023-03-18T20:15:20.790Z,12.10
2023-03-18T20:17:50.620Z,12.10
2023-03-18T20:20:49.676Z,12.00
2023-03-18T20:23:26.544Z,12.00
2023-03-18T20:25:54.007Z,11.90
2023-03-18T20:28:26.643Z,11.90
2023-03-18T20:30:56.309Z,11.90
2023-03-18T20:33:23.417Z,11.80
2023-03-18T20:35:53.573Z,11.80
2023-03-18T20:38:23.279Z,11.70
2023-03-18T20:40:50.638Z,11.70
2023-03-18T20:43:20.380Z,11.70
2023-03-18T20:45:47.877Z,11.70
2023-03-18T20:48:14.754Z,11.60
2023-03-18T20:50:41.610Z,11.60
2023-03-18T20:53:24.030Z,11.60
2023-03-18T20:55:52.761Z,11.60
2023-03-18T20:58:23.368Z,11.60
2023-03-18T21:00:52.113Z,11.60
2023-03-18T21:03:24.533Z,11.60
2023-03-18T21:05:53.389Z,11.70
2023-03-18T21:08:21.563Z,11.70
2023-03-18T21:10:48.936Z,11.80
2023-03-18T21:13:35.950Z,11.90
2023-03-18T21:16:06.162Z,11.90
2023-03-18T21:18:35.503Z,12.00
2023-03-18T21:21:02.425Z,12.00
2023-03-18T21:23:33.102Z,12.10
2023-03-18T21:26:01.068Z,12.10
2023-03-18T21:28:30.080Z,12.00
2023-03-18T21:30:58.610Z,12.10
2023-03-18T21:33:29.857Z,12.00
2023-03-18T21:35:57.756Z,12.10
2023-03-18T21:38:30.586Z,12.00
2023-03-18T21:41:00.779Z,12.00
2023-03-18T21:43:40.862Z,12.00
2023-03-18T21:46:16.200Z,12.00
2023-03-18T21:48:43.198Z,12.00
2023-03-18T21:51:39.930Z,12.00
2023-03-18T21:54:19.537Z,12.00
2023-03-18T21:56:46.511Z,12.10
2023-03-18T21:59:13.503Z,12.20
2023-03-18T22:01:40.487Z,12.30
2023-03-18T22:04:07.546Z,12.30
2023-03-18T22:06:34.553Z,12.40
2023-03-18T22:09:01.540Z,12.40
2023-03-18T22:11:28.398Z,12.40
2023-03-18T22:13:55.327Z,12.50
2023-03-18T22:16:22.510Z,12.50
2023-03-18T22:18:49.410Z,12.50
2023-03-18T22:21:28.311Z,12.50
2023-03-18T22:23:55.625Z,12.50
2023-03-18T22:26:22.806Z,12.50
2023-03-18T22:28:50.581Z,12.60
2023-03-18T22:31:26.366Z,12.50
2023-03-18T22:33:54.835Z,12.40
2023-03-18T22:36:21.954Z,12.40
2023-03-18T22:38:49.339Z,12.30
2023-03-18T22:41:23.883Z,12.30
2023-03-18T22:43:51.331Z,12.30
2023-03-18T22:46:18.538Z,12.20
2023-03-18T22:48:45.596Z,12.20
2023-03-18T22:51:41.555Z,12.10
2023-03-18T22:54:18.888Z,12.10
2023-03-18T22:56:45.766Z,12.00
2023-03-18T22:59:14.261Z,12.00
2023-03-18T23:01:41.166Z,11.90
2023-03-18T23:04:12.237Z,11.90
2023-03-18T23:06:39.124Z,11.90
2023-03-18T23:09:06.087Z,11.80
2023-03-18T23:11:34.711Z,11.80
2023-03-18T23:14:03.174Z,11.70
2023-03-18T23:16:30.375Z,11.80
2023-03-18T23:18:57.289Z,11.80
2023-03-18T23:21:25.562Z,11.80
2023-03-18T23:23:53.372Z,11.90
2023-03-18T23:26:20.458Z,11.90
2023-03-18T23:28:48.791Z,11.90
2023-03-18T23:31:16.522Z,11.90
2023-03-18T23:33:44.292Z,12.00
2023-03-18T23:36:12.184Z,12.00
2023-03-18T23:38:39.331Z,12.00
2023-03-18T23:41:07.224Z,12.00
2023-03-18T23:43:34.134Z,12.10
2023-03-18T23:46:02.166Z,12.10
2023-03-18T23:48:29.805Z,12.10
2023-03-18T23:50:56.818Z,12.10
2023-03-18T23:53:23.757Z,12.10
2023-03-18T23:55:50.956Z,12.20
2023-03-18T23:58:18.082Z,12.20
